Holly Grove, North Carolina
Current Conditions -  °F | °C
As of 7:55 AM on Thursday 27 Nov 2014 (Local Time) from KEXX Reporting Station
Haze Haze  
Wind Chill: 40°   Ceiling: 300
Heat Index: 40°   Visibility: 4mi
Dew Point: 39°   Wind: 0mph
Humidity: 97%   Direction: NA
Pressure: 30.01"   Gusts: NA
Location:  35.7974°N, 80.2541°W
Report Text: KEXX 271255Z AUTO 00000KT 4SM BR BKN003 BKN007 OVC024 05/04 A3001 RMK AO2 T00450040
Loading
Personal Weather Stations






























Interactive Weather Map New forecast layout! Learn more

10-Day Weather Forecast

Advertisements
Track Severe Weather on mobile